Time;durP1;ratioP1;P1;durP2;ratioP2;P2;SDS_P1;SDS_P2;PMS_P1;PMS_P2;Temp;Humidity;BMP_temperature;BMP_pressure;BME280_temperature;BME280_humidity;BME280_pressure;Samples;Min_cycle;Max_cycle;Signal;HPM_P1;HPM_P2
2023/12/24 00:01:30;;;;;;;22.70;15.05;;;;;;;;;;10268310;28;20051;-67
2023/12/24 00:06:30;;;;;;;19.40;14.13;;;;;;;;;;10278871;28;20030;-67
2023/12/24 00:11:31;;;;;;;20.02;14.43;;;;;;;;;;10269235;28;20023;-67
2023/12/24 00:16:32;;;;;;;25.40;14.25;;;;;;;;;;10269414;28;20482;-67
2023/12/24 00:21:32;;;;;;;20.85;13.80;;;;;;;;;;10282726;28;20037;-67
2023/12/24 00:26:33;;;;;;;17.50;13.68;;;;;;;;;;10290818;28;20022;-67
2023/12/24 00:31:33;;;;;;;21.90;14.73;;;;;;;;;;10290934;28;20037;-67
2023/12/24 00:36:34;;;;;;;21.15;13.68;;;;;;;;;;10282951;28;20027;-67
2023/12/24 00:41:39;;;;;;;22.90;13.18;;;;;;;;;;10279952;28;20483;-67
2023/12/24 00:46:39;;;;;;;20.15;13.18;;;;;;;;;;10290138;28;20041;-65
2023/12/24 00:51:43;;;;;;;18.50;12.95;;;;;;;;;;10289593;28;20372;-65
2023/12/24 00:56:44;;;;;;;18.95;12.50;;;;;;;;;;10289644;28;20062;-65
2023/12/24 01:01:44;;;;;;;18.85;12.98;;;;;;;;;;10288895;28;20442;-65
2023/12/24 01:06:45;;;;;;;18.17;12.68;;;;;;;;;;10289270;28;20406;-65
2023/12/24 01:11:47;;;;;;;21.55;12.77;;;;;;;;;;10289735;28;20308;-65
2023/12/24 01:16:47;;;;;;;16.70;12.75;;;;;;;;;;10289046;28;20472;-65
2023/12/24 01:21:54;;;;;;;17.65;12.38;;;;;;;;;;10288710;28;20031;-66
2023/12/24 01:26:54;;;;;;;18.42;13.18;;;;;;;;;;10288687;28;20501;-65
2023/12/24 01:31:55;;;;;;;19.73;12.63;;;;;;;;;;10288140;28;20023;-65
2023/12/24 01:36:56;;;;;;;17.08;13.05;;;;;;;;;;10288585;28;20035;-65
2023/12/24 01:41:56;;;;;;;16.98;12.75;;;;;;;;;;10288332;28;20050;-65
2023/12/24 01:46:57;;;;;;;15.63;11.85;;;;;;;;;;10288123;28;20051;-66
2023/12/24 01:51:58;;;;;;;16.40;12.23;;;;;;;;;;10288018;28;20042;-66
2023/12/24 01:56:59;;;;;;;21.00;13.48;;;;;;;;;;10287460;28;20390;-66
2023/12/24 02:02:01;;;;;;;15.55;12.07;;;;;;;;;;10234485;23;20632;-65
2023/12/24 02:07:04;;;;;;;18.73;12.75;;;;;;;;;;10207533;29;20032;-64
2023/12/24 02:12:05;;;;;;;19.00;11.73;;;;;;;;;;10206885;29;20038;-65
2023/12/24 02:17:06;;;;;;;16.00;12.40;;;;;;;;;;10207366;29;20460;-64
2023/12/24 02:22:07;;;;;;;15.25;11.80;;;;;;;;;;10206307;29;20040;-64
2023/12/24 02:27:20;;;;;;;15.52;11.85;;;;;;;;;;10206982;29;20023;-64
2023/12/24 02:32:22;;;;;;;18.20;11.50;;;;;;;;;;10207160;29;20063;-64
2023/12/24 02:37:23;;;;;;;13.30;10.55;;;;;;;;;;10205887;29;20039;-66
2023/12/24 02:42:24;;;;;;;16.20;10.50;;;;;;;;;;10205785;29;20118;-65
2023/12/24 02:47:24;;;;;;;13.63;10.70;;;;;;;;;;10207424;29;20036;-65
2023/12/24 02:52:25;;;;;;;16.58;11.00;;;;;;;;;;10206524;29;20031;-64
2023/12/24 02:57:26;;;;;;;15.73;11.30;;;;;;;;;;10206331;29;20499;-65
2023/12/24 03:02:27;;;;;;;14.77;11.13;;;;;;;;;;10205970;29;20111;-65
2023/12/24 03:07:28;;;;;;;15.35;10.90;;;;;;;;;;10206538;29;20099;-65
2023/12/24 03:12:29;;;;;;;12.70;10.15;;;;;;;;;;10206344;29;20051;-65
2023/12/24 03:17:29;;;;;;;12.98;9.90;;;;;;;;;;10214318;29;20051;-64
2023/12/24 03:22:30;;;;;;;14.52;10.00;;;;;;;;;;10213758;29;20071;-65
2023/12/24 03:27:30;;;;;;;13.52;9.82;;;;;;;;;;10212700;29;20032;-65
2023/12/24 03:32:31;;;;;;;14.07;10.20;;;;;;;;;;10213520;29;20028;-65
2023/12/24 03:37:32;;;;;;;14.55;10.05;;;;;;;;;;10213588;29;20035;-63
2023/12/24 03:42:32;;;;;;;12.00;9.90;;;;;;;;;;10213466;29;20034;-63
2023/12/24 03:47:34;;;;;;;13.05;9.82;;;;;;;;;;10212905;29;20038;-64
2023/12/24 03:52:35;;;;;;;15.23;9.60;;;;;;;;;;10213415;29;20127;-63
2023/12/24 03:57:35;;;;;;;12.05;9.55;;;;;;;;;;10212159;29;20027;-63
2023/12/24 04:02:36;;;;;;;14.13;9.10;;;;;;;;;;10212170;29;20503;-63
2023/12/24 04:07:36;;;;;;;12.82;9.80;;;;;;;;;;10211797;29;20028;-64
2023/12/24 04:12:37;;;;;;;12.88;10.15;;;;;;;;;;10212335;29;20091;-63
2023/12/24 04:17:38;;;;;;;12.57;9.27;;;;;;;;;;10212304;29;20380;-63
2023/12/24 04:22:38;;;;;;;11.48;9.02;;;;;;;;;;10211486;29;20032;-64
2023/12/24 04:27:39;;;;;;;11.88;9.02;;;;;;;;;;10210793;29;20396;-63
2023/12/24 04:32:39;;;;;;;15.85;9.68;;;;;;;;;;10211096;29;20037;-64
2023/12/24 04:37:40;;;;;;;11.82;8.70;;;;;;;;;;10211502;29;20024;-63
2023/12/24 04:42:40;;;;;;;12.10;8.93;;;;;;;;;;10210837;29;20027;-63
2023/12/24 04:47:41;;;;;;;12.30;8.93;;;;;;;;;;10210231;29;20087;-65
2023/12/24 04:52:42;;;;;;;10.35;8.32;;;;;;;;;;10210294;29;20282;-63
2023/12/24 04:57:42;;;;;;;11.52;8.73;;;;;;;;;;10210281;29;20034;-63
2023/12/24 05:02:43;;;;;;;10.85;8.95;;;;;;;;;;10209516;29;20091;-63
2023/12/24 05:07:43;;;;;;;12.48;9.13;;;;;;;;;;10209802;29;20036;-63
2023/12/24 05:12:44;;;;;;;10.45;8.40;;;;;;;;;;10210014;29;20067;-63
2023/12/24 05:17:44;;;;;;;10.52;7.95;;;;;;;;;;10209123;29;20036;-63
2023/12/24 05:22:45;;;;;;;10.60;8.05;;;;;;;;;;10208061;29;20059;-63
2023/12/24 05:27:46;;;;;;;11.30;8.00;;;;;;;;;;10209333;29;20027;-63
2023/12/24 05:32:46;;;;;;;10.60;8.20;;;;;;;;;;10208902;29;20535;-63
2023/12/24 05:37:47;;;;;;;10.75;7.78;;;;;;;;;;10207996;29;20027;-63
2023/12/24 05:42:48;;;;;;;9.23;7.30;;;;;;;;;;10209313;29;20271;-63
2023/12/24 05:47:48;;;;;;;10.68;8.48;;;;;;;;;;10208399;29;20035;-63
2023/12/24 05:52:49;;;;;;;10.60;7.72;;;;;;;;;;10208136;29;20091;-63
2023/12/24 05:57:49;;;;;;;10.10;7.30;;;;;;;;;;10206889;29;20027;-64
2023/12/24 06:02:50;;;;;;;10.07;6.97;;;;;;;;;;10208134;29;20044;-62
2023/12/24 06:07:51;;;;;;;10.52;7.80;;;;;;;;;;10207962;29;20035;-63
2023/12/24 06:12:53;;;;;;;8.75;7.50;;;;;;;;;;10221987;29;20039;-63
2023/12/24 06:17:53;;;;;;;11.65;7.32;;;;;;;;;;10207066;29;20031;-63
2023/12/24 06:22:54;;;;;;;10.82;7.35;;;;;;;;;;10206897;29;20063;-62
2023/12/24 06:27:55;;;;;;;8.95;7.63;;;;;;;;;;10206809;29;20031;-63
2023/12/24 06:32:55;;;;;;;8.95;7.38;;;;;;;;;;10207412;29;20111;-62
2023/12/24 06:37:56;;;;;;;8.45;7.13;;;;;;;;;;10206954;29;20449;-63
2023/12/24 06:42:56;;;;;;;10.50;7.32;;;;;;;;;;10207049;29;20027;-62
2023/12/24 06:47:59;;;;;;;10.40;7.95;;;;;;;;;;10206281;29;20475;-63
2023/12/24 06:53:00;;;;;;;8.52;6.65;;;;;;;;;;10205619;29;20038;-63
2023/12/24 06:58:03;;;;;;;8.73;6.82;;;;;;;;;;10206278;29;20019;-63
2023/12/24 07:03:03;;;;;;;8.57;6.63;;;;;;;;;;10206305;29;20428;-63
2023/12/24 07:08:07;;;;;;;10.55;6.82;;;;;;;;;;10206302;29;20106;-63
2023/12/24 07:13:07;;;;;;;9.18;7.18;;;;;;;;;;10206474;29;20488;-62
2023/12/24 07:18:08;;;;;;;9.00;6.80;;;;;;;;;;10206122;29;20056;-62
2023/12/24 07:23:09;;;;;;;9.73;7.07;;;;;;;;;;10206501;29;20027;-62
2023/12/24 07:28:09;;;;;;;8.85;6.32;;;;;;;;;;10205862;29;20020;-62
2023/12/24 07:33:10;;;;;;;9.02;6.40;;;;;;;;;;10206165;29;20031;-62
2023/12/24 07:38:10;;;;;;;9.30;6.63;;;;;;;;;;10205885;29;20106;-62
2023/12/24 07:43:11;;;;;;;7.22;6.30;;;;;;;;;;10205478;29;20039;-62
2023/12/24 07:48:12;;;;;;;7.20;6.45;;;;;;;;;;10205850;29;20090;-62
2023/12/24 07:53:12;;;;;;;9.48;6.68;;;;;;;;;;10199488;29;20031;-62
2023/12/24 07:58:13;;;;;;;7.68;6.53;;;;;;;;;;10180788;29;20036;-62
2023/12/24 08:03:13;;;;;;;7.82;6.18;;;;;;;;;;10205213;29;20291;-63
2023/12/24 08:08:14;;;;;;;8.50;6.38;;;;;;;;;;10209960;29;20024;-62
2023/12/24 08:13:15;;;;;;;8.23;6.00;;;;;;;;;;10202184;29;20039;-63
2023/12/24 08:18:15;;;;;;;7.93;6.03;;;;;;;;;;10209589;29;20396;-62
2023/12/24 08:23:16;;;;;;;7.18;5.82;;;;;;;;;;10211367;29;20028;-61
2023/12/24 08:28:24;;;;;;;14.15;6.40;;;;;;;;;;10190327;29;20398;-61
2023/12/24 08:33:24;;;;;;;9.98;6.43;;;;;;;;;;10189226;29;20027;-62
2023/12/24 08:38:25;;;;;;;8.07;6.28;;;;;;;;;;10210714;29;20031;-62
2023/12/24 08:43:25;;;;;;;12.75;6.60;;;;;;;;;;10210453;29;20412;-61
2023/12/24 08:48:26;;;;;;;9.80;6.65;;;;;;;;;;10210431;29;20507;-61
2023/12/24 08:53:27;;;;;;;11.80;6.93;;;;;;;;;;10210522;29;20522;-61
2023/12/24 08:58:27;;;;;;;11.60;6.38;;;;;;;;;;10210147;29;20058;-61
2023/12/24 09:03:28;;;;;;;8.02;6.43;;;;;;;;;;10209918;29;20036;-62
2023/12/24 09:08:29;;;;;;;9.52;6.00;;;;;;;;;;10209314;29;20024;-61
2023/12/24 09:13:29;;;;;;;10.73;6.20;;;;;;;;;;10209477;29;20104;-61
2023/12/24 09:18:31;;;;;;;15.88;7.47;;;;;;;;;;10208579;29;20228;-62
2023/12/24 09:23:31;;;;;;;8.40;6.22;;;;;;;;;;10208250;29;20032;-61
2023/12/24 09:28:32;;;;;;;10.57;6.82;;;;;;;;;;10208947;29;20031;-61
2023/12/24 09:33:33;;;;;;;9.65;6.78;;;;;;;;;;10208395;29;20035;-62
2023/12/24 09:38:35;;;;;;;9.05;6.35;;;;;;;;;;10207953;29;20095;-61
2023/12/24 09:43:38;;;;;;;11.93;6.80;;;;;;;;;;10208231;29;20032;-60
2023/12/24 09:48:38;;;;;;;7.38;6.15;;;;;;;;;;10208997;29;20032;-67
2023/12/24 09:53:46;;;;;;;11.00;6.28;;;;;;;;;;10208569;29;20040;-60
2023/12/24 09:58:47;;;;;;;9.05;5.80;;;;;;;;;;10207620;29;20074;-62
2023/12/24 10:03:47;;;;;;;8.02;6.03;;;;;;;;;;10208254;29;20028;-65
2023/12/24 10:08:54;;;;;;;8.93;5.88;;;;;;;;;;10207675;29;20552;-63
2023/12/24 10:14:01;;;;;;;8.88;6.30;;;;;;;;;;10206496;29;20623;-61
2023/12/24 10:19:01;;;;;;;9.50;6.15;;;;;;;;;;10206724;29;20515;-62
2023/12/24 10:24:05;;;;;;;8.52;6.60;;;;;;;;;;10206417;29;20039;-61
2023/12/24 10:29:06;;;;;;;7.20;6.25;;;;;;;;;;10205517;29;20405;-61
2023/12/24 10:34:06;;;;;;;9.23;5.70;;;;;;;;;;10207644;29;20038;-61
2023/12/24 10:39:17;;;;;;;7.10;6.15;;;;;;;;;;10206788;29;20031;-61
2023/12/24 10:44:17;;;;;;;8.98;5.60;;;;;;;;;;10206525;29;20628;-60
2023/12/24 10:49:18;;;;;;;8.23;6.18;;;;;;;;;;10206952;29;20284;-61
2023/12/24 10:54:19;;;;;;;8.88;6.07;;;;;;;;;;10206606;29;20047;-61
2023/12/24 11:00:06;;;;;;;9.35;6.72;;;;;;;;;;10206647;29;20051;-60
2023/12/24 11:05:07;;;;;;;8.23;6.20;;;;;;;;;;10205962;29;20031;-61
2023/12/24 11:10:07;;;;;;;7.05;6.05;;;;;;;;;;10206343;29;20039;-61
2023/12/24 11:15:09;;;;;;;8.43;6.05;;;;;;;;;;10206460;29;20040;-60
2023/12/24 11:20:25;;;;;;;8.23;6.43;;;;;;;;;;10202536;29;20115;-61
2023/12/24 11:25:38;;;;;;;8.88;6.07;;;;;;;;;;10205171;29;20065;-61
2023/12/24 11:30:50;;;;;;;8.57;6.40;;;;;;;;;;10204565;29;20039;-61
2023/12/24 11:35:56;;;;;;;8.30;6.03;;;;;;;;;;10209444;29;20031;-60
2023/12/24 11:41:10;;;;;;;8.15;5.82;;;;;;;;;;10213359;29;20391;-60
2023/12/24 11:46:10;;;;;;;6.82;5.55;;;;;;;;;;10202651;29;20042;-61
2023/12/24 11:51:12;;;;;;;9.55;6.25;;;;;;;;;;10205140;29;20031;-61
2023/12/24 11:56:15;;;;;;;8.63;6.03;;;;;;;;;;10205442;29;20440;-60
2023/12/24 12:01:20;;;;;;;8.20;5.85;;;;;;;;;;10205868;29;20251;-60
2023/12/24 12:06:21;;;;;;;7.85;5.25;;;;;;;;;;10202650;29;20035;-61
2023/12/24 12:11:21;;;;;;;9.18;5.78;;;;;;;;;;10212288;29;20039;-62
2023/12/24 12:16:22;;;;;;;6.80;5.43;;;;;;;;;;10211260;29;20055;-61
2023/12/24 12:21:22;;;;;;;9.00;5.88;;;;;;;;;;10208987;29;20028;-60
2023/12/24 12:26:23;;;;;;;18.00;6.70;;;;;;;;;;10207419;29;20032;-61
2023/12/24 12:31:24;;;;;;;23.20;6.25;;;;;;;;;;10199011;29;20031;-60
2023/12/24 12:36:24;;;;;;;11.98;6.45;;;;;;;;;;10208071;29;20036;-60
2023/12/24 12:41:25;;;;;;;11.43;5.93;;;;;;;;;;10210565;29;20035;-60
2023/12/24 12:46:26;;;;;;;9.43;5.10;;;;;;;;;;10201368;29;20043;-60
2023/12/24 12:51:26;;;;;;;7.72;5.63;;;;;;;;;;10210385;29;20200;-60
2023/12/24 12:56:27;;;;;;;12.38;6.03;;;;;;;;;;10210816;29;20474;-60
2023/12/24 13:01:39;;;;;;;8.45;5.30;;;;;;;;;;10194918;29;20044;-61
2023/12/24 13:06:50;;;;;;;8.65;5.53;;;;;;;;;;10184780;29;20432;-61
2023/12/24 13:11:51;;;;;;;9.40;5.53;;;;;;;;;;10189695;29;20028;-60
2023/12/24 13:17:10;;;;;;;6.80;4.72;;;;;;;;;;10208931;29;20316;-59
2023/12/24 13:22:10;;;;;;;;;;;;;;;;;;10198090;29;20395;-61
2023/12/24 13:27:11;;;;;;;8.13;5.03;;;;;;;;;;10207853;29;19915;-61
2023/12/24 13:32:12;;;;;;;8.25;5.30;;;;;;;;;;10207629;29;20470;-59
2023/12/24 13:37:13;;;;;;;11.32;5.25;;;;;;;;;;10202504;29;20360;-59
2023/12/24 13:42:13;;;;;;;10.75;5.35;;;;;;;;;;10208327;29;20040;-59
2023/12/24 13:47:16;;;;;;;6.93;5.07;;;;;;;;;;10206235;29;20035;-59
2023/12/24 13:52:17;;;;;;;12.85;4.63;;;;;;;;;;10197396;29;20036;-59
2023/12/24 13:57:18;;;;;;;6.22;5.15;;;;;;;;;;10204601;29;20091;-59
2023/12/24 14:02:18;;;;;;;7.28;4.63;;;;;;;;;;10207926;29;20499;-60
2023/12/24 14:07:20;;;;;;;14.70;5.53;;;;;;;;;;10195782;29;20064;-60
2023/12/24 14:12:21;;;;;;;7.65;5.38;;;;;;;;;;10200114;29;20116;-60
2023/12/24 14:17:23;;;;;;;13.23;5.03;;;;;;;;;;10200180;29;20497;-60
2023/12/24 14:22:23;;;;;;;19.10;5.22;;;;;;;;;;10205259;29;20560;-61
2023/12/24 14:27:25;;;;;;;29.98;6.75;;;;;;;;;;10199923;29;20103;-61
2023/12/24 14:32:26;;;;;;;12.13;5.35;;;;;;;;;;10204808;29;20617;-67
2023/12/24 14:37:26;;;;;;;10.27;5.63;;;;;;;;;;10206145;29;20140;-63
2023/12/24 14:42:28;;;;;;;12.32;5.35;;;;;;;;;;10200320;29;20035;-61
2023/12/24 14:47:29;;;;;;;10.57;5.13;;;;;;;;;;10200336;29;20403;-60
2023/12/24 14:52:30;;;;;;;18.33;5.53;;;;;;;;;;10204872;29;20028;-61
2023/12/24 14:57:30;;;;;;;10.90;5.47;;;;;;;;;;10197141;29;20356;-60
2023/12/24 15:02:31;;;;;;;11.15;5.68;;;;;;;;;;10182331;29;20056;-64
2023/12/24 15:07:33;;;;;;;9.20;5.30;;;;;;;;;;10200183;29;20023;-60
2023/12/24 15:12:34;;;;;;;10.32;5.13;;;;;;;;;;10191187;29;20034;-63
2023/12/24 15:17:34;;;;;;;9.63;5.20;;;;;;;;;;10199702;29;20460;-60
2023/12/24 15:22:35;;;;;;;11.43;5.45;;;;;;;;;;10213574;29;20443;-62
2023/12/24 15:27:35;;;;;;;8.50;4.68;;;;;;;;;;10213298;29;20109;-61
2023/12/24 15:32:36;;;;;;;10.60;4.50;;;;;;;;;;10210450;29;20106;-61
2023/12/24 15:37:37;;;;;;;8.68;4.35;;;;;;;;;;10191071;29;20036;-62
2023/12/24 15:42:38;;;;;;;10.73;4.80;;;;;;;;;;10186892;29;20078;-62
2023/12/24 15:47:38;;;;;;;7.28;4.97;;;;;;;;;;10198824;29;20034;-61
2023/12/24 15:52:39;;;;;;;8.32;4.70;;;;;;;;;;10211368;29;20031;-61
2023/12/24 15:57:39;;;;;;;9.68;5.05;;;;;;;;;;10200141;29;20036;-61
2023/12/24 16:02:41;;;;;;;12.43;4.72;;;;;;;;;;10186214;29;20044;-65
2023/12/24 16:07:42;;;;;;;8.10;4.25;;;;;;;;;;10186954;29;20260;-60
2023/12/24 16:12:42;;;;;;;13.70;4.60;;;;;;;;;;10186835;29;20205;-60
2023/12/24 16:17:43;;;;;;;10.35;4.80;;;;;;;;;;10186829;29;20063;-60
2023/12/24 16:22:43;;;;;;;8.73;4.88;;;;;;;;;;10185426;29;20071;-61
2023/12/24 16:27:45;;;;;;;7.10;4.38;;;;;;;;;;10201732;29;20035;-60
2023/12/24 16:32:45;;;;;;;14.48;4.85;;;;;;;;;;10205921;29;20368;-59
2023/12/24 16:37:46;;;;;;;6.68;4.68;;;;;;;;;;10198435;29;20260;-59
2023/12/24 16:42:47;;;;;;;10.30;5.05;;;;;;;;;;10203524;29;20460;-61
2023/12/24 16:47:48;;;;;;;8.52;4.55;;;;;;;;;;10184605;29;20043;-60
2023/12/24 16:52:48;;;;;;;7.60;4.32;;;;;;;;;;10184687;29;20058;-59
2023/12/24 16:58:00;;;;;;;5.75;4.05;;;;;;;;;;10183355;29;20095;-61
2023/12/24 17:03:01;;;;;;;6.97;4.50;;;;;;;;;;10192918;29;20107;-60
2023/12/24 17:08:02;;;;;;;6.13;3.90;;;;;;;;;;10189542;29;20035;-63
2023/12/24 17:13:03;;;;;;;11.52;4.35;;;;;;;;;;10191523;29;20180;-59
2023/12/24 17:18:12;;;;;;;15.57;4.40;;;;;;;;;;10183035;29;20034;-61
2023/12/24 17:23:12;;;;;;;;;;;;;;;;;;10184113;29;20031;-60
2023/12/24 17:28:13;;;;;;;20.95;5.03;;;;;;;;;;10183644;29;20005;-62
2023/12/24 17:33:14;;;;;;;17.42;5.55;;;;;;;;;;10188254;29;20494;-59
2023/12/24 17:38:26;;;;;;;12.65;5.75;;;;;;;;;;10180621;29;20039;-59
2023/12/24 17:43:27;;;;;;;13.10;4.72;;;;;;;;;;10180403;29;20554;-61
2023/12/24 17:48:27;;;;;;;13.90;5.53;;;;;;;;;;10163930;29;20036;-61
2023/12/24 17:53:29;;;;;;;13.95;5.07;;;;;;;;;;10198229;29;20271;-62
2023/12/24 17:58:43;;;;;;;17.05;5.13;;;;;;;;;;10573130;27;20607;-62
2023/12/24 18:03:44;;;;;;;14.68;5.43;;;;;;;;;;10521664;28;20060;-59
2023/12/24 18:08:44;;;;;;;16.67;5.35;;;;;;;;;;10524807;28;20051;-63
2023/12/24 18:13:45;;;;;;;14.50;5.75;;;;;;;;;;10525021;28;20036;-60
2023/12/24 18:18:50;;;;;;;14.13;4.97;;;;;;;;;;10518036;28;20031;-62
2023/12/24 18:23:51;;;;;;;21.20;5.53;;;;;;;;;;10522723;28;20031;-61
2023/12/24 18:28:51;;;;;;;8.82;4.82;;;;;;;;;;10524030;28;20035;-63
2023/12/24 18:33:52;;;;;;;10.55;5.22;;;;;;;;;;10523270;28;20024;-62
2023/12/24 18:38:53;;;;;;;11.40;5.43;;;;;;;;;;10524714;28;20035;-62
2023/12/24 18:43:54;;;;;;;10.25;4.78;;;;;;;;;;10524841;28;20035;-62
2023/12/24 18:48:54;;;;;;;12.45;5.00;;;;;;;;;;10525009;28;20078;-62
2023/12/24 18:53:55;;;;;;;10.38;4.90;;;;;;;;;;10524853;28;20406;-62
2023/12/24 18:58:56;;;;;;;17.92;5.22;;;;;;;;;;10524094;28;20070;-61
2023/12/24 19:03:56;;;;;;;15.68;5.15;;;;;;;;;;10523983;28;20028;-61
2023/12/24 19:08:58;;;;;;;12.55;4.90;;;;;;;;;;10502772;28;20107;-61
2023/12/24 19:14:00;;;;;;;12.52;5.15;;;;;;;;;;10496271;28;20028;-62
2023/12/24 19:19:00;;;;;;;10.13;5.35;;;;;;;;;;10494906;28;20024;-61
2023/12/24 19:24:01;;;;;;;17.33;5.57;;;;;;;;;;10495444;28;20372;-61
2023/12/24 19:29:02;;;;;;;12.88;5.40;;;;;;;;;;10495347;28;20384;-61
2023/12/24 19:34:03;;;;;;;10.63;5.57;;;;;;;;;;10495372;28;20028;-61
2023/12/24 19:39:04;;;;;;;12.25;5.45;;;;;;;;;;10494713;28;20024;-61
2023/12/24 19:44:04;;;;;;;13.45;5.40;;;;;;;;;;10494486;28;20107;-61
2023/12/24 19:49:05;;;;;;;11.15;5.40;;;;;;;;;;10494639;28;20031;-61
2023/12/24 19:54:05;;;;;;;10.13;6.07;;;;;;;;;;10494196;28;20052;-61
2023/12/24 19:59:06;;;;;;;20.13;7.00;;;;;;;;;;10494509;28;20272;-61
2023/12/24 20:04:07;;;;;;;18.27;5.90;;;;;;;;;;10494387;28;20395;-61
2023/12/24 20:09:07;;;;;;;9.13;6.10;;;;;;;;;;10494151;28;20040;-62
2023/12/24 20:14:08;;;;;;;17.38;7.30;;;;;;;;;;10493441;28;20028;-62
2023/12/24 20:19:09;;;;;;;13.77;6.53;;;;;;;;;;10492250;28;20056;-61
2023/12/24 20:24:11;;;;;;;13.90;6.88;;;;;;;;;;10492937;28;20032;-61
2023/12/24 20:29:13;;;;;;;15.63;6.95;;;;;;;;;;10491932;28;20024;-61
2023/12/24 20:34:14;;;;;;;13.55;6.55;;;;;;;;;;10492333;28;20152;-61
2023/12/24 20:39:15;;;;;;;10.07;7.00;;;;;;;;;;10493143;28;20032;-62
2023/12/24 20:44:15;;;;;;;8.98;5.75;;;;;;;;;;10492739;28;20389;-61
2023/12/24 20:49:16;;;;;;;11.80;6.55;;;;;;;;;;10492601;28;20028;-61
2023/12/24 20:54:16;;;;;;;11.07;6.57;;;;;;;;;;10490764;28;20041;-61
2023/12/24 20:59:18;;;;;;;10.65;6.30;;;;;;;;;;10491717;28;20464;-61
2023/12/24 21:04:18;;;;;;;8.27;6.78;;;;;;;;;;10492460;28;20034;-61
2023/12/24 21:09:19;;;;;;;8.70;6.03;;;;;;;;;;10491244;28;20066;-61
2023/12/24 21:14:20;;;;;;;10.15;7.05;;;;;;;;;;10491850;28;20028;-61
2023/12/24 21:19:21;;;;;;;12.30;7.38;;;;;;;;;;10491933;28;20056;-62
2023/12/24 21:24:21;;;;;;;12.60;6.40;;;;;;;;;;10490796;28;20025;-61
2023/12/24 21:29:22;;;;;;;10.38;6.93;;;;;;;;;;10490880;28;20036;-62
2023/12/24 21:34:23;;;;;;;16.05;7.32;;;;;;;;;;10490655;28;20025;-61
2023/12/24 21:39:23;;;;;;;12.75;7.93;;;;;;;;;;10490258;28;20032;-61
2023/12/24 21:44:24;;;;;;;13.45;7.82;;;;;;;;;;10490768;28;20043;-61
2023/12/24 21:49:25;;;;;;;17.52;8.35;;;;;;;;;;10490646;28;20029;-61
2023/12/24 21:54:25;;;;;;;14.30;7.82;;;;;;;;;;10490821;28;20048;-61
2023/12/24 21:59:26;;;;;;;10.95;7.50;;;;;;;;;;10489354;28;20365;-62
2023/12/24 22:04:26;;;;;;;12.57;8.00;;;;;;;;;;10488543;28;20040;-62
2023/12/24 22:09:27;;;;;;;16.58;8.05;;;;;;;;;;10489946;28;20024;-62
2023/12/24 22:14:28;;;;;;;11.57;7.90;;;;;;;;;;10490456;28;20033;-61
2023/12/24 22:19:28;;;;;;;12.30;7.53;;;;;;;;;;10489994;28;20047;-61
2023/12/24 22:24:29;;;;;;;11.43;7.57;;;;;;;;;;10490459;28;20029;-61
2023/12/24 22:29:29;;;;;;;22.17;8.60;;;;;;;;;;10490405;28;20043;-61
2023/12/24 22:34:30;;;;;;;17.17;8.02;;;;;;;;;;10488226;28;20035;-61
2023/12/24 22:39:31;;;;;;;12.23;7.53;;;;;;;;;;10488910;28;20530;-61
2023/12/24 22:44:31;;;;;;;14.75;8.30;;;;;;;;;;10494977;28;20134;-61
2023/12/24 22:49:32;;;;;;;15.02;8.02;;;;;;;;;;10496768;28;20081;-61
2023/12/24 22:54:32;;;;;;;14.40;8.13;;;;;;;;;;10495883;28;20052;-61
2023/12/24 22:59:33;;;;;;;16.83;9.45;;;;;;;;;;10496085;28;20085;-61
2023/12/24 23:04:33;;;;;;;15.55;8.05;;;;;;;;;;10496273;28;20058;-61
2023/12/24 23:09:34;;;;;;;16.50;7.65;;;;;;;;;;10494947;28;20020;-61
2023/12/24 23:14:35;;;;;;;14.07;7.90;;;;;;;;;;10495935;28;20114;-61
2023/12/24 23:19:35;;;;;;;14.35;8.10;;;;;;;;;;10496276;28;20047;-61
2023/12/24 23:24:36;;;;;;;17.75;8.90;;;;;;;;;;10495972;28;20070;-61
2023/12/24 23:29:39;;;;;;;11.57;7.95;;;;;;;;;;10495953;28;20467;-61
2023/12/24 23:34:40;;;;;;;15.43;8.18;;;;;;;;;;10495459;28;20530;-61
2023/12/24 23:39:40;;;;;;;19.27;8.38;;;;;;;;;;10495393;28;20078;-61
2023/12/24 23:44:41;;;;;;;16.88;7.97;;;;;;;;;;10495026;28;20090;-61
2023/12/24 23:49:42;;;;;;;11.70;8.27;;;;;;;;;;10494673;28;20028;-61
2023/12/24 23:54:42;;;;;;;13.90;8.20;;;;;;;;;;10494703;28;20048;-61
2023/12/24 23:59:43;;;;;;;12.20;7.35;;;;;;;;;;10494407;28;20028;-61
